sensor_id;sensor_type;location;lat;lon;timestamp;temperature;humidity
24730;DHT22;12832;52.392;13.066;2022-09-09T00:02:01;28.00;45.70
24730;DHT22;12832;52.392;13.066;2022-09-09T00:04:28;28.00;45.70
24730;DHT22;12832;52.392;13.066;2022-09-09T00:09:30;28.00;45.70
24730;DHT22;12832;52.392;13.066;2022-09-09T00:15:07;28.00;45.70
24730;DHT22;12832;52.392;13.066;2022-09-09T00:17:58;28.00;45.70
24730;DHT22;12832;52.392;13.066;2022-09-09T00:20:48;28.10;45.80
24730;DHT22;12832;52.392;13.066;2022-09-09T00:23:25;28.10;45.70
24730;DHT22;12832;52.392;13.066;2022-09-09T00:26:12;28.10;46.40
24730;DHT22;12832;52.392;13.066;2022-09-09T00:31:28;28.10;45.80
24730;DHT22;12832;52.392;13.066;2022-09-09T00:34:00;28.10;45.80
24730;DHT22;12832;52.392;13.066;2022-09-09T00:36:31;28.00;45.80
24730;DHT22;12832;52.392;13.066;2022-09-09T00:39:00;28.00;45.80
24730;DHT22;12832;52.392;13.066;2022-09-09T00:41:46;28.00;45.70
24730;DHT22;12832;52.392;13.066;2022-09-09T00:44:30;28.00;45.80
24730;DHT22;12832;52.392;13.066;2022-09-09T00:57:36;28.10;45.80
24730;DHT22;12832;52.392;13.066;2022-09-09T01:02:48;28.10;45.80
24730;DHT22;12832;52.392;13.066;2022-09-09T01:06:11;28.10;45.80
24730;DHT22;12832;52.392;13.066;2022-09-09T01:08:35;28.10;45.80
24730;DHT22;12832;52.392;13.066;2022-09-09T01:11:05;28.00;45.70
24730;DHT22;12832;52.392;13.066;2022-09-09T01:13:35;28.00;45.80
24730;DHT22;12832;52.392;13.066;2022-09-09T01:16:04;28.00;45.70
24730;DHT22;12832;52.392;13.066;2022-09-09T01:18:37;28.10;45.80
24730;DHT22;12832;52.392;13.066;2022-09-09T01:21:21;28.10;45.80
24730;DHT22;12832;52.392;13.066;2022-09-09T01:26:41;28.10;45.80
24730;DHT22;12832;52.392;13.066;2022-09-09T01:29:13;28.10;45.80
24730;DHT22;12832;52.392;13.066;2022-09-09T01:31:42;28.10;45.80
24730;DHT22;12832;52.392;13.066;2022-09-09T01:34:17;28.10;45.80
24730;DHT22;12832;52.392;13.066;2022-09-09T01:36:57;28.10;45.80
24730;DHT22;12832;52.392;13.066;2022-09-09T01:39:25;28.10;45.90
24730;DHT22;12832;52.392;13.066;2022-09-09T01:41:52;28.10;45.80
24730;DHT22;12832;52.392;13.066;2022-09-09T01:44:19;28.10;45.90
24730;DHT22;12832;52.392;13.066;2022-09-09T01:46:45;28.10;45.80
24730;DHT22;12832;52.392;13.066;2022-09-09T01:49:11;28.10;45.80
24730;DHT22;12832;52.392;13.066;2022-09-09T01:51:39;28.10;45.90
24730;DHT22;12832;52.392;13.066;2022-09-09T01:54:07;28.10;45.90
24730;DHT22;12832;52.392;13.066;2022-09-09T02:02:17;28.10;45.90
24730;DHT22;12832;52.392;13.066;2022-09-09T02:04:56;28.10;45.90
24730;DHT22;12832;52.392;13.066;2022-09-09T02:08:08;28.10;45.90
24730;DHT22;12832;52.392;13.066;2022-09-09T02:10:46;28.10;45.90
24730;DHT22;12832;52.392;13.066;2022-09-09T02:13:17;28.10;45.80
24730;DHT22;12832;52.392;13.066;2022-09-09T02:18:16;28.10;45.80
24730;DHT22;12832;52.392;13.066;2022-09-09T02:20:44;28.10;45.80
24730;DHT22;12832;52.392;13.066;2022-09-09T02:23:12;28.10;45.80
24730;DHT22;12832;52.392;13.066;2022-09-09T02:25:40;28.20;45.80
24730;DHT22;12832;52.392;13.066;2022-09-09T02:28:09;28.10;45.80
24730;DHT22;12832;52.392;13.066;2022-09-09T02:30:37;28.10;45.80
24730;DHT22;12832;52.392;13.066;2022-09-09T02:33:06;28.10;45.80
24730;DHT22;12832;52.392;13.066;2022-09-09T02:35:34;28.10;45.80
24730;DHT22;12832;52.392;13.066;2022-09-09T02:38:07;28.10;45.80
24730;DHT22;12832;52.392;13.066;2022-09-09T02:40:33;28.10;45.80
24730;DHT22;12832;52.392;13.066;2022-09-09T02:43:00;28.10;45.80
24730;DHT22;12832;52.392;13.066;2022-09-09T02:45:35;28.10;45.80
24730;DHT22;12832;52.392;13.066;2022-09-09T02:48:06;28.10;45.80
24730;DHT22;12832;52.392;13.066;2022-09-09T02:50:38;28.10;45.90
24730;DHT22;12832;52.392;13.066;2022-09-09T02:53:16;28.10;45.90
24730;DHT22;12832;52.392;13.066;2022-09-09T02:56:04;28.10;45.90
24730;DHT22;12832;52.392;13.066;2022-09-09T02:58:33;28.10;45.90
24730;DHT22;12832;52.392;13.066;2022-09-09T03:01:00;28.10;46.50
24730;DHT22;12832;52.392;13.066;2022-09-09T03:03:28;28.10;45.90
24730;DHT22;12832;52.392;13.066;2022-09-09T03:05:56;28.10;45.90
24730;DHT22;12832;52.392;13.066;2022-09-09T03:08:22;28.10;45.90
24730;DHT22;12832;52.392;13.066;2022-09-09T03:10:49;28.10;45.90
24730;DHT22;12832;52.392;13.066;2022-09-09T03:13:15;28.10;45.80
24730;DHT22;12832;52.392;13.066;2022-09-09T03:15:42;28.10;45.80
24730;DHT22;12832;52.392;13.066;2022-09-09T03:18:08;28.10;45.80
24730;DHT22;12832;52.392;13.066;2022-09-09T03:20:34;28.10;46.40
24730;DHT22;12832;52.392;13.066;2022-09-09T03:23:00;28.10;45.80
24730;DHT22;12832;52.392;13.066;2022-09-09T03:25:28;28.10;45.80
24730;DHT22;12832;52.392;13.066;2022-09-09T03:27:55;28.10;45.80
24730;DHT22;12832;52.392;13.066;2022-09-09T03:30:22;28.10;45.80
24730;DHT22;12832;52.392;13.066;2022-09-09T03:32:48;28.10;45.90
24730;DHT22;12832;52.392;13.066;2022-09-09T03:35:14;28.10;45.90
24730;DHT22;12832;52.392;13.066;2022-09-09T03:37:41;28.10;45.80
24730;DHT22;12832;52.392;13.066;2022-09-09T03:40:08;28.10;45.80
24730;DHT22;12832;52.392;13.066;2022-09-09T03:42:36;28.10;45.80
24730;DHT22;12832;52.392;13.066;2022-09-09T03:45:04;28.10;45.80
24730;DHT22;12832;52.392;13.066;2022-09-09T03:47:30;28.10;45.80
24730;DHT22;12832;52.392;13.066;2022-09-09T03:49:57;28.10;45.80
24730;DHT22;12832;52.392;13.066;2022-09-09T03:52:23;28.10;45.90
24730;DHT22;12832;52.392;13.066;2022-09-09T03:54:51;28.10;45.80
24730;DHT22;12832;52.392;13.066;2022-09-09T03:57:17;28.10;45.90
24730;DHT22;12832;52.392;13.066;2022-09-09T03:59:43;28.10;45.90
24730;DHT22;12832;52.392;13.066;2022-09-09T04:02:10;28.10;45.90
24730;DHT22;12832;52.392;13.066;2022-09-09T04:04:36;28.10;45.80
24730;DHT22;12832;52.392;13.066;2022-09-09T04:07:02;28.10;45.80
24730;DHT22;12832;52.392;13.066;2022-09-09T04:09:28;28.10;45.80
24730;DHT22;12832;52.392;13.066;2022-09-09T04:11:54;28.10;45.80
24730;DHT22;12832;52.392;13.066;2022-09-09T04:14:20;28.10;45.80
24730;DHT22;12832;52.392;13.066;2022-09-09T04:16:47;28.10;46.20
24730;DHT22;12832;52.392;13.066;2022-09-09T04:19:13;28.10;45.90
24730;DHT22;12832;52.392;13.066;2022-09-09T04:21:42;28.10;45.90
24730;DHT22;12832;52.392;13.066;2022-09-09T04:24:09;28.10;45.90
24730;DHT22;12832;52.392;13.066;2022-09-09T04:26:36;28.10;45.90
24730;DHT22;12832;52.392;13.066;2022-09-09T04:29:03;28.10;45.90
24730;DHT22;12832;52.392;13.066;2022-09-09T04:31:30;28.10;45.90
24730;DHT22;12832;52.392;13.066;2022-09-09T04:33:56;28.10;45.80
24730;DHT22;12832;52.392;13.066;2022-09-09T04:36:22;28.10;45.90
24730;DHT22;12832;52.392;13.066;2022-09-09T04:38:48;28.10;45.90
24730;DHT22;12832;52.392;13.066;2022-09-09T04:41:15;28.10;45.90
24730;DHT22;12832;52.392;13.066;2022-09-09T04:43:42;28.10;45.90
24730;DHT22;12832;52.392;13.066;2022-09-09T04:46:08;28.10;45.90
24730;DHT22;12832;52.392;13.066;2022-09-09T04:48:34;28.10;45.80
24730;DHT22;12832;52.392;13.066;2022-09-09T04:51:03;28.10;45.80
24730;DHT22;12832;52.392;13.066;2022-09-09T04:53:31;28.10;45.90
24730;DHT22;12832;52.392;13.066;2022-09-09T04:56:05;28.10;45.90
24730;DHT22;12832;52.392;13.066;2022-09-09T04:58:31;28.10;45.90
24730;DHT22;12832;52.392;13.066;2022-09-09T05:03:40;28.10;45.70
24730;DHT22;12832;52.392;13.066;2022-09-09T05:06:11;28.10;45.50
24730;DHT22;12832;52.392;13.066;2022-09-09T05:08:39;28.00;45.40
24730;DHT22;12832;52.392;13.066;2022-09-09T05:13:42;28.00;45.40
24730;DHT22;12832;52.392;13.066;2022-09-09T05:16:08;27.90;45.40
24730;DHT22;12832;52.392;13.066;2022-09-09T05:18:38;27.90;45.40
24730;DHT22;12832;52.392;13.066;2022-09-09T05:21:05;27.90;45.40
24730;DHT22;12832;52.392;13.066;2022-09-09T05:23:33;27.90;45.30
24730;DHT22;12832;52.392;13.066;2022-09-09T05:26:00;27.90;45.40
24730;DHT22;12832;52.392;13.066;2022-09-09T05:28:27;27.90;45.40
24730;DHT22;12832;52.392;13.066;2022-09-09T05:31:04;27.80;45.30
24730;DHT22;12832;52.392;13.066;2022-09-09T05:33:31;27.80;45.30
24730;DHT22;12832;52.392;13.066;2022-09-09T05:35:59;27.80;45.40
24730;DHT22;12832;52.392;13.066;2022-09-09T05:38:25;27.80;45.30
24730;DHT22;12832;52.392;13.066;2022-09-09T05:40:55;27.80;45.40
24730;DHT22;12832;52.392;13.066;2022-09-09T05:43:23;27.80;45.40
24730;DHT22;12832;52.392;13.066;2022-09-09T05:46:09;27.80;45.30
24730;DHT22;12832;52.392;13.066;2022-09-09T05:48:39;27.80;45.30
24730;DHT22;12832;52.392;13.066;2022-09-09T05:51:09;27.80;45.40
24730;DHT22;12832;52.392;13.066;2022-09-09T05:53:36;27.80;45.40
24730;DHT22;12832;52.392;13.066;2022-09-09T05:56:07;27.70;45.70
24730;DHT22;12832;52.392;13.066;2022-09-09T05:58:37;27.70;45.30
24730;DHT22;12832;52.392;13.066;2022-09-09T06:01:09;27.70;45.40
24730;DHT22;12832;52.392;13.066;2022-09-09T06:03:37;27.70;45.40
24730;DHT22;12832;52.392;13.066;2022-09-09T06:06:05;27.70;45.40
24730;DHT22;12832;52.392;13.066;2022-09-09T06:08:33;27.70;45.30
24730;DHT22;12832;52.392;13.066;2022-09-09T06:11:08;27.70;45.40
24730;DHT22;12832;52.392;13.066;2022-09-09T06:13:34;27.70;45.40
24730;DHT22;12832;52.392;13.066;2022-09-09T06:16:01;27.70;45.40
24730;DHT22;12832;52.392;13.066;2022-09-09T06:18:27;27.70;45.40
24730;DHT22;12832;52.392;13.066;2022-09-09T06:20:55;27.70;45.40
24730;DHT22;12832;52.392;13.066;2022-09-09T06:23:21;27.70;45.50
24730;DHT22;12832;52.392;13.066;2022-09-09T06:25:47;27.70;45.50
24730;DHT22;12832;52.392;13.066;2022-09-09T06:28:15;27.70;45.50
24730;DHT22;12832;52.392;13.066;2022-09-09T06:30:41;27.70;45.50
24730;DHT22;12832;52.392;13.066;2022-09-09T06:33:07;27.70;45.50
24730;DHT22;12832;52.392;13.066;2022-09-09T06:35:35;27.70;45.60
24730;DHT22;12832;52.392;13.066;2022-09-09T06:38:01;27.70;45.60
24730;DHT22;12832;52.392;13.066;2022-09-09T06:40:27;27.70;45.70
24730;DHT22;12832;52.392;13.066;2022-09-09T06:42:53;27.70;46.30
24730;DHT22;12832;52.392;13.066;2022-09-09T06:45:19;27.60;45.60
24730;DHT22;12832;52.392;13.066;2022-09-09T06:47:45;27.60;45.60
24730;DHT22;12832;52.392;13.066;2022-09-09T06:50:11;27.60;45.60
24730;DHT22;12832;52.392;13.066;2022-09-09T06:52:37;27.60;46.20
24730;DHT22;12832;52.392;13.066;2022-09-09T06:55:03;27.70;45.70
24730;DHT22;12832;52.392;13.066;2022-09-09T06:57:30;27.70;45.70
24730;DHT22;12832;52.392;13.066;2022-09-09T07:00:04;27.70;45.70
24730;DHT22;12832;52.392;13.066;2022-09-09T07:02:31;27.60;45.60
24730;DHT22;12832;52.392;13.066;2022-09-09T07:04:59;27.60;45.70
24730;DHT22;12832;52.392;13.066;2022-09-09T07:07:25;27.60;45.60
24730;DHT22;12832;52.392;13.066;2022-09-09T07:09:52;27.70;45.70
24730;DHT22;12832;52.392;13.066;2022-09-09T07:12:18;27.60;45.60
24730;DHT22;12832;52.392;13.066;2022-09-09T07:14:45;27.60;45.60
24730;DHT22;12832;52.392;13.066;2022-09-09T07:17:11;27.60;45.70
24730;DHT22;12832;52.392;13.066;2022-09-09T07:19:37;27.70;45.70
24730;DHT22;12832;52.392;13.066;2022-09-09T07:22:03;27.60;45.70
24730;DHT22;12832;52.392;13.066;2022-09-09T07:24:29;27.60;45.70
24730;DHT22;12832;52.392;13.066;2022-09-09T07:26:56;27.60;45.70
24730;DHT22;12832;52.392;13.066;2022-09-09T07:29:22;27.60;45.70
24730;DHT22;12832;52.392;13.066;2022-09-09T07:31:48;27.60;45.70
24730;DHT22;12832;52.392;13.066;2022-09-09T07:34:15;27.60;45.80
24730;DHT22;12832;52.392;13.066;2022-09-09T07:36:41;27.60;45.80
24730;DHT22;12832;52.392;13.066;2022-09-09T07:39:12;27.60;45.80
24730;DHT22;12832;52.392;13.066;2022-09-09T07:41:44;27.60;45.80
24730;DHT22;12832;52.392;13.066;2022-09-09T07:44:17;27.60;45.90
24730;DHT22;12832;52.392;13.066;2022-09-09T07:46:44;27.60;45.90
24730;DHT22;12832;52.392;13.066;2022-09-09T07:49:11;27.60;45.90
24730;DHT22;12832;52.392;13.066;2022-09-09T07:51:40;27.60;45.90
24730;DHT22;12832;52.392;13.066;2022-09-09T07:54:09;27.60;46.00
24730;DHT22;12832;52.392;13.066;2022-09-09T07:56:37;27.60;45.90
24730;DHT22;12832;52.392;13.066;2022-09-09T07:59:03;27.60;46.00
24730;DHT22;12832;52.392;13.066;2022-09-09T08:01:33;27.60;46.10
24730;DHT22;12832;52.392;13.066;2022-09-09T08:04:03;27.60;46.10
24730;DHT22;12832;52.392;13.066;2022-09-09T08:06:34;27.60;46.10
24730;DHT22;12832;52.392;13.066;2022-09-09T08:09:00;27.60;46.10
24730;DHT22;12832;52.392;13.066;2022-09-09T08:11:28;27.60;46.10
24730;DHT22;12832;52.392;13.066;2022-09-09T08:13:55;27.50;46.10
24730;DHT22;12832;52.392;13.066;2022-09-09T08:16:33;27.60;46.20
24730;DHT22;12832;52.392;13.066;2022-09-09T08:19:03;27.60;46.30
24730;DHT22;12832;52.392;13.066;2022-09-09T08:21:31;27.50;46.30
24730;DHT22;12832;52.392;13.066;2022-09-09T08:23:59;27.60;46.30
24730;DHT22;12832;52.392;13.066;2022-09-09T08:26:31;27.60;46.40
24730;DHT22;12832;52.392;13.066;2022-09-09T08:28:58;27.60;46.40
24730;DHT22;12832;52.392;13.066;2022-09-09T08:31:26;27.50;46.40
24730;DHT22;12832;52.392;13.066;2022-09-09T08:33:54;27.50;46.40
24730;DHT22;12832;52.392;13.066;2022-09-09T08:36:23;27.50;46.50
24730;DHT22;12832;52.392;13.066;2022-09-09T08:38:50;27.60;46.50
24730;DHT22;12832;52.392;13.066;2022-09-09T08:44:13;27.50;46.50
24730;DHT22;12832;52.392;13.066;2022-09-09T08:47:01;27.50;46.50
24730;DHT22;12832;52.392;13.066;2022-09-09T08:49:50;27.50;46.60
24730;DHT22;12832;52.392;13.066;2022-09-09T08:52:38;27.60;46.60
24730;DHT22;12832;52.392;13.066;2022-09-09T08:58:26;27.50;46.60
24730;DHT22;12832;52.392;13.066;2022-09-09T09:09:09;27.50;47.50
24730;DHT22;12832;52.392;13.066;2022-09-09T09:11:38;27.50;46.80
24730;DHT22;12832;52.392;13.066;2022-09-09T09:14:22;27.50;46.80
24730;DHT22;12832;52.392;13.066;2022-09-09T09:17:11;27.50;46.90
24730;DHT22;12832;52.392;13.066;2022-09-09T09:19:40;27.50;46.90
24730;DHT22;12832;52.392;13.066;2022-09-09T09:22:30;27.50;46.90
24730;DHT22;12832;52.392;13.066;2022-09-09T09:25:09;27.50;46.90
24730;DHT22;12832;52.392;13.066;2022-09-09T09:30:39;27.50;47.00
24730;DHT22;12832;52.392;13.066;2022-09-09T09:33:38;27.50;47.00
24730;DHT22;12832;52.392;13.066;2022-09-09T09:36:12;27.50;47.00
24730;DHT22;12832;52.392;13.066;2022-09-09T09:38:52;27.50;47.10
24730;DHT22;12832;52.392;13.066;2022-09-09T09:41:41;27.50;47.10
24730;DHT22;12832;52.392;13.066;2022-09-09T09:44:38;27.50;47.10
24730;DHT22;12832;52.392;13.066;2022-09-09T09:47:25;27.50;47.10
24730;DHT22;12832;52.392;13.066;2022-09-09T09:50:02;27.50;47.20
24730;DHT22;12832;52.392;13.066;2022-09-09T09:52:31;27.50;47.40
24730;DHT22;12832;52.392;13.066;2022-09-09T09:54:58;27.60;47.50
24730;DHT22;12832;52.392;13.066;2022-09-09T09:57:33;27.60;47.50
24730;DHT22;12832;52.392;13.066;2022-09-09T10:00:15;27.60;47.70
24730;DHT22;12832;52.392;13.066;2022-09-09T10:02:44;27.60;47.60
24730;DHT22;12832;52.392;13.066;2022-09-09T10:05:20;27.60;47.50
24730;DHT22;12832;52.392;13.066;2022-09-09T10:08:05;27.60;47.40
24730;DHT22;12832;52.392;13.066;2022-09-09T10:16:37;27.60;47.40
24730;DHT22;12832;52.392;13.066;2022-09-09T10:19:33;27.60;47.40
24730;DHT22;12832;52.392;13.066;2022-09-09T10:25:18;27.50;47.50
24730;DHT22;12832;52.392;13.066;2022-09-09T10:30:44;27.50;47.50
24730;DHT22;12832;52.392;13.066;2022-09-09T10:36:19;27.60;47.90
24730;DHT22;12832;52.392;13.066;2022-09-09T10:38:48;27.60;47.80
24730;DHT22;12832;52.392;13.066;2022-09-09T10:41:23;27.60;47.90
24730;DHT22;12832;52.392;13.066;2022-09-09T10:52:52;27.50;47.70
24730;DHT22;12832;52.392;13.066;2022-09-09T10:55:26;27.60;47.70
24730;DHT22;12832;52.392;13.066;2022-09-09T10:57:58;27.50;47.80
24730;DHT22;12832;52.392;13.066;2022-09-09T11:00:31;27.50;47.70
24730;DHT22;12832;52.392;13.066;2022-09-09T11:03:03;27.50;47.70
24730;DHT22;12832;52.392;13.066;2022-09-09T11:06:04;27.50;47.70
24730;DHT22;12832;52.392;13.066;2022-09-09T11:08:34;27.60;47.80
24730;DHT22;12832;52.392;13.066;2022-09-09T11:11:04;27.50;47.70
24730;DHT22;12832;52.392;13.066;2022-09-09T11:16:39;27.60;47.70
24730;DHT22;12832;52.392;13.066;2022-09-09T11:19:38;27.50;47.70
24730;DHT22;12832;52.392;13.066;2022-09-09T11:22:16;27.60;47.70
24730;DHT22;12832;52.392;13.066;2022-09-09T11:24:54;27.60;47.70
24730;DHT22;12832;52.392;13.066;2022-09-09T11:27:31;27.60;47.70
24730;DHT22;12832;52.392;13.066;2022-09-09T11:30:20;27.50;47.70
24730;DHT22;12832;52.392;13.066;2022-09-09T11:33:17;27.50;47.60
24730;DHT22;12832;52.392;13.066;2022-09-09T11:36:24;27.50;47.50
24730;DHT22;12832;52.392;13.066;2022-09-09T11:41:45;27.50;47.50
24730;DHT22;12832;52.392;13.066;2022-09-09T11:44:17;27.50;47.50
24730;DHT22;12832;52.392;13.066;2022-09-09T11:46:46;27.50;47.60
24730;DHT22;12832;52.392;13.066;2022-09-09T11:49:28;27.60;47.50
24730;DHT22;12832;52.392;13.066;2022-09-09T11:51:56;27.60;47.50
24730;DHT22;12832;52.392;13.066;2022-09-09T11:54:31;27.50;47.50
24730;DHT22;12832;52.392;13.066;2022-09-09T11:56:58;27.60;47.50
24730;DHT22;12832;52.392;13.066;2022-09-09T11:59:27;27.50;47.50
24730;DHT22;12832;52.392;13.066;2022-09-09T12:02:26;27.50;47.60
24730;DHT22;12832;52.392;13.066;2022-09-09T12:05:06;27.50;47.60
24730;DHT22;12832;52.392;13.066;2022-09-09T12:07:47;27.50;47.70
24730;DHT22;12832;52.392;13.066;2022-09-09T12:10:29;27.50;47.60
24730;DHT22;12832;52.392;13.066;2022-09-09T12:12:55;27.50;47.70
24730;DHT22;12832;52.392;13.066;2022-09-09T12:15:33;27.50;47.60
24730;DHT22;12832;52.392;13.066;2022-09-09T12:17:59;27.50;47.60
24730;DHT22;12832;52.392;13.066;2022-09-09T12:20:38;27.60;47.70
24730;DHT22;12832;52.392;13.066;2022-09-09T12:35:03;27.60;47.60
24730;DHT22;12832;52.392;13.066;2022-09-09T12:40:22;27.50;47.60
24730;DHT22;12832;52.392;13.066;2022-09-09T12:42:48;27.50;47.60
24730;DHT22;12832;52.392;13.066;2022-09-09T12:45:19;27.60;47.60
24730;DHT22;12832;52.392;13.066;2022-09-09T12:47:50;27.50;47.60
24730;DHT22;12832;52.392;13.066;2022-09-09T12:50:23;27.60;47.60
24730;DHT22;12832;52.392;13.066;2022-09-09T12:52:54;27.60;47.60
24730;DHT22;12832;52.392;13.066;2022-09-09T12:55:24;27.50;47.60
24730;DHT22;12832;52.392;13.066;2022-09-09T12:57:51;27.60;47.60
24730;DHT22;12832;52.392;13.066;2022-09-09T13:00:20;27.50;47.50
24730;DHT22;12832;52.392;13.066;2022-09-09T13:02:56;27.60;47.50
24730;DHT22;12832;52.392;13.066;2022-09-09T13:05:37;27.60;47.50
24730;DHT22;12832;52.392;13.066;2022-09-09T13:08:06;27.50;48.00
24730;DHT22;12832;52.392;13.066;2022-09-09T13:10:50;27.50;47.90
24730;DHT22;12832;52.392;13.066;2022-09-09T13:13:39;27.60;47.80
24730;DHT22;12832;52.392;13.066;2022-09-09T13:16:15;27.50;47.50
24730;DHT22;12832;52.392;13.066;2022-09-09T13:18:44;27.60;47.50
24730;DHT22;12832;52.392;13.066;2022-09-09T13:21:10;27.50;47.40
24730;DHT22;12832;52.392;13.066;2022-09-09T13:23:37;27.50;47.40
24730;DHT22;12832;52.392;13.066;2022-09-09T13:26:06;27.50;47.70
24730;DHT22;12832;52.392;13.066;2022-09-09T13:28:47;27.50;47.40
24730;DHT22;12832;52.392;13.066;2022-09-09T13:31:28;27.50;47.40
24730;DHT22;12832;52.392;13.066;2022-09-09T13:33:54;27.50;47.40
24730;DHT22;12832;52.392;13.066;2022-09-09T13:36:29;27.50;47.50
24730;DHT22;12832;52.392;13.066;2022-09-09T13:39:00;27.50;47.50
24730;DHT22;12832;52.392;13.066;2022-09-09T13:41:35;27.50;47.50
24730;DHT22;12832;52.392;13.066;2022-09-09T13:44:03;27.50;47.50
24730;DHT22;12832;52.392;13.066;2022-09-09T13:49:21;27.50;47.50
24730;DHT22;12832;52.392;13.066;2022-09-09T13:51:50;27.50;47.50
24730;DHT22;12832;52.392;13.066;2022-09-09T13:54:19;27.50;47.50
24730;DHT22;12832;52.392;13.066;2022-09-09T13:56:46;27.50;47.50
24730;DHT22;12832;52.392;13.066;2022-09-09T13:59:15;27.50;47.50
24730;DHT22;12832;52.392;13.066;2022-09-09T14:01:42;27.50;47.50
24730;DHT22;12832;52.392;13.066;2022-09-09T14:04:08;27.50;47.50
24730;DHT22;12832;52.392;13.066;2022-09-09T14:06:35;27.50;47.50
24730;DHT22;12832;52.392;13.066;2022-09-09T14:09:11;27.50;47.40
24730;DHT22;12832;52.392;13.066;2022-09-09T14:11:38;27.50;47.50
24730;DHT22;12832;52.392;13.066;2022-09-09T14:14:04;27.50;47.40
24730;DHT22;12832;52.392;13.066;2022-09-09T14:16:31;27.50;47.30
24730;DHT22;12832;52.392;13.066;2022-09-09T14:18:57;27.50;47.30
24730;DHT22;12832;52.392;13.066;2022-09-09T14:21:23;27.60;47.30
24730;DHT22;12832;52.392;13.066;2022-09-09T14:23:50;27.50;47.30
24730;DHT22;12832;52.392;13.066;2022-09-09T14:26:16;27.50;47.30
24730;DHT22;12832;52.392;13.066;2022-09-09T14:28:42;27.50;47.20
24730;DHT22;12832;52.392;13.066;2022-09-09T14:31:21;27.50;47.20
24730;DHT22;12832;52.392;13.066;2022-09-09T14:33:47;27.50;47.20
24730;DHT22;12832;52.392;13.066;2022-09-09T14:36:13;27.50;47.20
24730;DHT22;12832;52.392;13.066;2022-09-09T14:38:40;27.50;47.20
24730;DHT22;12832;52.392;13.066;2022-09-09T14:41:12;27.50;47.10
24730;DHT22;12832;52.392;13.066;2022-09-09T14:43:39;27.50;47.20
24730;DHT22;12832;52.392;13.066;2022-09-09T14:46:10;27.50;47.10
24730;DHT22;12832;52.392;13.066;2022-09-09T14:48:37;27.50;47.20
24730;DHT22;12832;52.392;13.066;2022-09-09T14:51:20;27.50;47.10
24730;DHT22;12832;52.392;13.066;2022-09-09T14:53:50;27.50;47.10
24730;DHT22;12832;52.392;13.066;2022-09-09T14:56:18;27.50;47.10
24730;DHT22;12832;52.392;13.066;2022-09-09T14:58:46;27.50;47.10
24730;DHT22;12832;52.392;13.066;2022-09-09T15:01:14;27.50;47.10
24730;DHT22;12832;52.392;13.066;2022-09-09T15:03:42;27.50;47.10
24730;DHT22;12832;52.392;13.066;2022-09-09T15:06:11;27.50;47.10
24730;DHT22;12832;52.392;13.066;2022-09-09T15:08:42;27.50;47.10
24730;DHT22;12832;52.392;13.066;2022-09-09T15:11:10;27.40;47.00
24730;DHT22;12832;52.392;13.066;2022-09-09T15:13:37;27.50;47.80
24730;DHT22;12832;52.392;13.066;2022-09-09T15:16:06;27.50;47.10
24730;DHT22;12832;52.392;13.066;2022-09-09T15:18:33;27.50;47.10
24730;DHT22;12832;52.392;13.066;2022-09-09T15:21:00;27.50;47.20
24730;DHT22;12832;52.392;13.066;2022-09-09T15:23:27;27.50;47.20
24730;DHT22;12832;52.392;13.066;2022-09-09T15:25:54;27.40;47.20
24730;DHT22;12832;52.392;13.066;2022-09-09T15:28:21;27.50;47.20
24730;DHT22;12832;52.392;13.066;2022-09-09T15:30:50;27.50;47.20
24730;DHT22;12832;52.392;13.066;2022-09-09T15:33:21;27.50;47.20
24730;DHT22;12832;52.392;13.066;2022-09-09T15:35:48;27.50;47.20
24730;DHT22;12832;52.392;13.066;2022-09-09T15:38:16;27.50;47.20
24730;DHT22;12832;52.392;13.066;2022-09-09T15:40:43;27.40;47.20
24730;DHT22;12832;52.392;13.066;2022-09-09T15:43:09;27.50;47.20
24730;DHT22;12832;52.392;13.066;2022-09-09T15:45:37;27.50;47.20
24730;DHT22;12832;52.392;13.066;2022-09-09T15:48:04;27.40;47.10
24730;DHT22;12832;52.392;13.066;2022-09-09T15:50:30;27.50;47.20
24730;DHT22;12832;52.392;13.066;2022-09-09T15:52:59;27.40;47.10
24730;DHT22;12832;52.392;13.066;2022-09-09T15:55:25;27.50;47.20
24730;DHT22;12832;52.392;13.066;2022-09-09T15:57:51;27.50;47.30
24730;DHT22;12832;52.392;13.066;2022-09-09T16:00:21;27.50;47.20
24730;DHT22;12832;52.392;13.066;2022-09-09T16:02:48;27.40;47.20
24730;DHT22;12832;52.392;13.066;2022-09-09T16:05:15;27.40;47.20
24730;DHT22;12832;52.392;13.066;2022-09-09T16:07:41;27.40;47.20
24730;DHT22;12832;52.392;13.066;2022-09-09T16:10:09;27.50;47.20
24730;DHT22;12832;52.392;13.066;2022-09-09T16:12:35;27.50;47.20
24730;DHT22;12832;52.392;13.066;2022-09-09T16:15:01;27.40;47.10
24730;DHT22;12832;52.392;13.066;2022-09-09T16:17:27;27.40;47.20
24730;DHT22;12832;52.392;13.066;2022-09-09T16:19:53;27.40;47.20
24730;DHT22;12832;52.392;13.066;2022-09-09T16:22:20;27.50;47.20
24730;DHT22;12832;52.392;13.066;2022-09-09T16:24:46;27.50;47.20
24730;DHT22;12832;52.392;13.066;2022-09-09T16:27:12;27.50;47.20
24730;DHT22;12832;52.392;13.066;2022-09-09T16:29:39;27.50;47.20
24730;DHT22;12832;52.392;13.066;2022-09-09T16:32:05;27.50;47.20
24730;DHT22;12832;52.392;13.066;2022-09-09T16:34:32;27.40;47.20
24730;DHT22;12832;52.392;13.066;2022-09-09T16:36:59;27.40;47.20
24730;DHT22;12832;52.392;13.066;2022-09-09T16:39:25;27.50;47.20
24730;DHT22;12832;52.392;13.066;2022-09-09T16:41:51;27.50;47.20
24730;DHT22;12832;52.392;13.066;2022-09-09T16:44:18;27.50;47.30
24730;DHT22;12832;52.392;13.066;2022-09-09T16:46:46;27.50;47.30
24730;DHT22;12832;52.392;13.066;2022-09-09T16:49:15;27.50;47.30
24730;DHT22;12832;52.392;13.066;2022-09-09T16:51:46;27.40;47.20
24730;DHT22;12832;52.392;13.066;2022-09-09T16:54:14;27.50;47.30
24730;DHT22;12832;52.392;13.066;2022-09-09T16:56:43;27.40;47.20
24730;DHT22;12832;52.392;13.066;2022-09-09T16:59:13;27.50;47.40
24730;DHT22;12832;52.392;13.066;2022-09-09T17:01:41;27.40;47.30
24730;DHT22;12832;52.392;13.066;2022-09-09T17:04:12;27.40;47.20
24730;DHT22;12832;52.392;13.066;2022-09-09T17:06:39;27.50;47.20
24730;DHT22;12832;52.392;13.066;2022-09-09T17:09:09;27.40;47.20
24730;DHT22;12832;52.392;13.066;2022-09-09T17:11:37;27.50;47.10
24730;DHT22;12832;52.392;13.066;2022-09-09T17:14:04;27.50;47.00
24730;DHT22;12832;52.392;13.066;2022-09-09T17:16:32;27.50;47.00
24730;DHT22;12832;52.392;13.066;2022-09-09T17:19:01;27.50;47.00
24730;DHT22;12832;52.392;13.066;2022-09-09T17:21:28;27.50;47.00